createdAt,value
2023-04-06T00:04:24.045Z,80.14
2023-04-06T00:09:27.225Z,80.38
2023-04-06T00:14:31.724Z,80.18
2023-04-06T00:19:35.116Z,80.15
2023-04-06T00:24:38.080Z,80.05
2023-04-06T00:29:43.230Z,79.79
2023-04-06T00:34:46.708Z,80.29
2023-04-06T00:39:52.597Z,79.95
2023-04-06T00:44:59.461Z,80.20
2023-04-06T00:50:02.589Z,79.73
2023-04-06T00:55:07.062Z,79.33
2023-04-06T01:00:18.354Z,79.19
2023-04-06T01:05:26.402Z,79.25
2023-04-06T01:10:33.766Z,79.49
2023-04-06T01:15:50.199Z,79.21
2023-04-06T01:21:00.736Z,79.43
2023-04-06T01:26:06.351Z,79.71
2023-04-06T01:31:10.872Z,79.33
2023-04-06T01:36:27.089Z,79.54
2023-04-06T01:41:44.075Z,79.23
2023-04-06T01:46:51.305Z,79.05
2023-04-06T01:51:56.588Z,79.11
2023-04-06T01:57:03.394Z,79.06
2023-04-06T02:02:30.004Z,79.24
2023-04-06T02:07:40.728Z,79.02
2023-04-06T02:12:45.931Z,79.36
2023-04-06T02:17:56.209Z,78.46
2023-04-06T02:23:01.177Z,78.78
2023-04-06T02:28:06.272Z,78.85
2023-04-06T02:33:09.479Z,79.09
2023-04-06T02:38:19.414Z,79.81
2023-04-06T02:43:23.918Z,80.02
2023-04-06T02:48:32.056Z,79.71
2023-04-06T02:53:35.223Z,80.09
2023-04-06T02:58:40.066Z,80.15
2023-04-06T03:03:43.443Z,79.83
2023-04-06T03:08:53.686Z,80.05
2023-04-06T03:14:01.114Z,80.61
2023-04-06T03:19:04.218Z,80.91
2023-04-06T03:24:10.952Z,80.95
2023-04-06T03:29:15.998Z,81.12
2023-04-06T03:34:19.295Z,81.14
2023-04-06T03:39:22.743Z,81.04
2023-04-06T03:44:30.491Z,81.11
2023-04-06T03:49:33.646Z,81.20
2023-04-06T03:54:38.746Z,81.19
2023-04-06T03:59:43.346Z,80.91
2023-04-06T04:04:46.751Z,80.85
2023-04-06T04:09:52.881Z,81.14
2023-04-06T04:14:58.069Z,81.20
2023-04-06T04:20:01.414Z,81.46
2023-04-06T04:25:04.562Z,81.62
2023-04-06T04:30:12.271Z,81.55
2023-04-06T04:35:15.600Z,81.62
2023-04-06T04:40:19.737Z,81.62
2023-04-06T04:45:31.465Z,81.64
2023-04-06T04:50:39.335Z,81.33
2023-04-06T04:55:42.543Z,80.79
2023-04-06T05:00:51.280Z,80.79
2023-04-06T05:05:55.126Z,80.69
2023-04-06T05:11:01.301Z,80.64
2023-04-06T05:16:09.074Z,80.58
2023-04-06T05:21:14.176Z,80.58
2023-04-06T05:26:28.889Z,80.46
2023-04-06T05:31:40.424Z,80.52
2023-04-06T05:36:43.729Z,80.51
2023-04-06T05:41:55.236Z,80.13
2023-04-06T05:47:14.494Z,80.08
2023-04-06T05:52:21.768Z,79.64
2023-04-06T05:57:26.241Z,79.80
2023-04-06T06:02:32.807Z,79.62
2023-04-06T06:07:36.362Z,79.38
2023-04-06T06:12:39.644Z,79.89
2023-04-06T06:17:45.058Z,79.73
2023-04-06T06:22:49.173Z,79.46
2023-04-06T06:27:56.630Z,79.62
2023-04-06T06:33:01.241Z,79.44
2023-04-06T06:38:06.356Z,79.56
2023-04-06T06:43:10.052Z,79.15
2023-04-06T06:48:40.352Z,79.01
2023-04-06T06:53:43.694Z,79.37
2023-04-06T06:58:47.317Z,78.97
2023-04-06T07:03:52.064Z,78.64
2023-04-06T07:08:55.517Z,77.84
2023-04-06T07:13:58.628Z,77.23
2023-04-06T07:19:04.032Z,77.38
2023-04-06T07:24:08.223Z,77.13
2023-04-06T07:29:12.981Z,77.33
2023-04-06T07:34:17.768Z,77.41
2023-04-06T07:39:21.163Z,76.98
2023-04-06T07:44:24.833Z,76.35
2023-04-06T07:49:29.854Z,75.90
2023-04-06T07:54:33.088Z,76.03
2023-04-06T07:59:36.259Z,76.10
2023-04-06T08:04:40.843Z,75.71
2023-04-06T08:09:43.975Z,75.68
2023-04-06T08:14:47.147Z,74.73
2023-04-06T08:19:51.712Z,74.26
2023-04-06T08:24:55.616Z,75.02
2023-04-06T08:29:58.824Z,74.69
2023-04-06T08:35:03.393Z,75.31
2023-04-06T08:40:07.900Z,74.82
2023-04-06T08:45:11.942Z,75.20
2023-04-06T08:50:18.605Z,76.46
2023-04-06T08:55:21.799Z,77.80
2023-04-06T09:00:25.957Z,77.78
2023-04-06T09:05:32.981Z,78.43
2023-04-06T09:10:36.666Z,78.05
2023-04-06T09:15:40.185Z,79.11
2023-04-06T09:20:44.713Z,79.02
2023-04-06T09:25:47.849Z,78.68
2023-04-06T09:30:51.724Z,79.17
2023-04-06T09:35:56.383Z,79.72
2023-04-06T09:41:01.629Z,79.68
2023-04-06T09:46:06.633Z,80.40
2023-04-06T09:51:16.361Z,80.70
2023-04-06T09:56:26.232Z,84.36
2023-04-06T10:01:32.309Z,85.14
2023-04-06T10:06:37.948Z,86.36
2023-04-06T10:11:41.635Z,84.97
2023-04-06T10:16:45.221Z,86.47
2023-04-06T10:21:55.732Z,87.19
2023-04-06T10:27:04.250Z,87.89
2023-04-06T10:32:07.567Z,88.01
2023-04-06T10:37:16.504Z,89.70
2023-04-06T10:42:19.838Z,90.46
2023-04-06T10:47:23.280Z,91.29
2023-04-06T10:52:27.943Z,91.63
2023-04-06T10:57:32.007Z,93.57
2023-04-06T11:02:35.222Z,93.68
2023-04-06T11:07:41.281Z,93.30
2023-04-06T11:12:44.492Z,93.09
2023-04-06T11:17:47.901Z,93.85
2023-04-06T11:22:54.418Z,93.16
2023-04-06T11:27:57.908Z,91.13
2023-04-06T11:33:04.517Z,91.35
2023-04-06T11:38:09.102Z,90.83
2023-04-06T11:43:14.105Z,91.86
2023-04-06T11:48:21.909Z,91.33
2023-04-06T11:53:27.035Z,91.33
2023-04-06T11:58:32.132Z,91.64
2023-04-06T12:03:35.564Z,93.09
2023-04-06T12:08:40.967Z,94.86
2023-04-06T12:13:44.323Z,95.51
2023-04-06T12:18:47.798Z,94.50
2023-04-06T12:23:55.771Z,96.58
2023-04-06T12:29:04.001Z,98.61
2023-04-06T12:34:07.319Z,98.70
2023-04-06T12:39:12.224Z,99.79
2023-04-06T12:44:15.405Z,100.00
2023-04-06T12:49:20.177Z,100.00
2023-04-06T12:54:24.654Z,100.00
2023-04-06T12:59:28.123Z,100.00
2023-04-06T13:04:33.572Z,100.00
2023-04-06T13:09:38.550Z,100.00
2023-04-06T13:14:41.932Z,100.00
2023-04-06T13:19:45.184Z,100.00
2023-04-06T13:24:52.643Z,100.00
2023-04-06T13:29:57.220Z,100.00
2023-04-06T13:35:01.858Z,100.00
2023-04-06T13:40:07.433Z,100.00
2023-04-06T13:45:11.753Z,100.00
2023-04-06T13:50:14.990Z,100.00
2023-04-06T13:55:19.612Z,100.00
2023-04-06T14:00:23.774Z,100.00
2023-04-06T14:05:29.014Z,100.00
2023-04-06T14:10:33.648Z,100.00
2023-04-06T14:15:37.557Z,100.00
2023-04-06T14:20:41.108Z,100.00
2023-04-06T14:25:45.652Z,100.00
2023-04-06T14:30:49.004Z,100.00
2023-04-06T14:35:52.063Z,100.00
2023-04-06T14:40:57.117Z,100.00
2023-04-06T14:46:02.795Z,100.00
2023-04-06T14:51:06.003Z,100.00
2023-04-06T14:56:10.801Z,100.00
2023-04-06T15:01:13.915Z,100.00
2023-04-06T15:06:18.716Z,100.00
2023-04-06T15:11:24.003Z,100.00
2023-04-06T15:16:27.414Z,100.00
2023-04-06T15:21:31.336Z,100.00
2023-04-06T15:26:35.861Z,100.00
2023-04-06T15:31:40.147Z,100.00
2023-04-06T15:36:44.677Z,100.00
2023-04-06T15:41:49.472Z,100.00
2023-04-06T15:46:53.716Z,100.00
2023-04-06T15:57:01.496Z,100.00
2023-04-06T16:02:04.651Z,100.00
2023-04-06T16:07:07.932Z,100.00
2023-04-06T16:12:13.194Z,100.00
2023-04-06T16:17:16.814Z,100.00
2023-04-06T16:22:20.942Z,100.00
2023-04-06T16:27:39.452Z,100.00
2023-04-06T16:32:47.333Z,100.00
2023-04-06T16:37:54.232Z,100.00
2023-04-06T16:42:58.661Z,100.00
2023-04-06T16:48:01.846Z,100.00
2023-04-06T16:53:05.035Z,100.00
2023-04-06T16:58:09.934Z,100.00
2023-04-06T17:03:13.289Z,100.00
2023-04-06T17:08:16.782Z,100.00
2023-04-06T17:13:21.623Z,100.00
2023-04-06T17:18:24.794Z,100.00
2023-04-06T17:23:28.249Z,100.00
2023-04-06T17:28:33.157Z,100.00
2023-04-06T17:33:36.717Z,100.00
2023-04-06T17:38:44.063Z,100.00
2023-04-06T17:43:51.201Z,100.00
2023-04-06T17:48:54.514Z,100.00
2023-04-06T17:53:57.842Z,100.00
2023-04-06T17:59:02.732Z,100.00
2023-04-06T18:04:05.886Z,100.00
2023-04-06T18:09:09.514Z,100.00
2023-04-06T18:14:16.135Z,100.00
2023-04-06T18:19:19.828Z,100.00
2023-04-06T18:24:37.398Z,100.00
2023-04-06T18:29:47.539Z,100.00
2023-04-06T18:34:55.603Z,100.00
2023-04-06T18:39:59.119Z,100.00
2023-04-06T18:45:03.731Z,100.00
2023-04-06T18:50:07.712Z,100.00
2023-04-06T18:55:11.281Z,100.00
2023-04-06T19:00:17.391Z,100.00
2023-04-06T19:05:22.394Z,100.00
2023-04-06T19:10:25.847Z,100.00
2023-04-06T19:15:30.351Z,100.00
2023-04-06T19:20:35.272Z,100.00
2023-04-06T19:25:38.544Z,100.00
2023-04-06T19:30:43.315Z,100.00
2023-04-06T19:35:46.755Z,100.00
2023-04-06T19:40:50.067Z,100.00
2023-04-06T19:45:55.009Z,100.00
2023-04-06T19:50:58.302Z,100.00
2023-04-06T19:56:01.384Z,100.00
2023-04-06T20:01:06.276Z,100.00
2023-04-06T20:06:09.626Z,100.00
2023-04-06T20:11:14.157Z,100.00
2023-04-06T20:16:18.627Z,100.00
2023-04-06T20:21:21.912Z,100.00
2023-04-06T20:26:25.149Z,100.00
2023-04-06T20:31:30.411Z,100.00
2023-04-06T20:36:34.126Z,100.00
2023-04-06T20:41:39.897Z,100.00
2023-04-06T20:46:45.994Z,100.00
2023-04-06T20:51:49.770Z,100.00
2023-04-06T20:56:52.958Z,100.00
2023-04-06T21:01:58.227Z,100.00
2023-04-06T21:07:01.660Z,100.00
2023-04-06T21:12:07.562Z,100.00
2023-04-06T21:17:12.698Z,100.00
2023-04-06T21:22:16.175Z,100.00
2023-04-06T21:27:19.294Z,100.00
2023-04-06T21:32:23.964Z,100.00
2023-04-06T21:37:27.282Z,100.00
2023-04-06T21:42:30.495Z,100.00
2023-04-06T21:47:36.025Z,100.00
2023-04-06T21:52:39.297Z,100.00
2023-04-06T21:57:42.831Z,100.00
2023-04-06T22:02:47.795Z,100.00
2023-04-06T22:07:54.950Z,100.00
2023-04-06T22:12:58.343Z,100.00
2023-04-06T22:18:03.281Z,100.00
2023-04-06T22:23:06.513Z,100.00
2023-04-06T22:28:09.685Z,100.00
2023-04-06T22:33:14.118Z,100.00
2023-04-06T22:38:17.298Z,100.00
2023-04-06T22:43:20.386Z,100.00
2023-04-06T22:48:26.072Z,100.00
2023-04-06T22:53:29.511Z,100.00
2023-04-06T22:58:32.940Z,100.00
2023-04-06T23:03:37.438Z,100.00
2023-04-06T23:08:40.797Z,100.00
2023-04-06T23:13:43.922Z,100.00
2023-04-06T23:18:48.702Z,100.00
2023-04-06T23:23:51.663Z,100.00
2023-04-06T23:28:55.110Z,100.00
2023-04-06T23:33:59.552Z,100.00
2023-04-06T23:39:02.652Z,100.00
2023-04-06T23:44:05.920Z,100.00
2023-04-06T23:49:10.333Z,100.00
2023-04-06T23:54:14.152Z,100.00
2023-04-06T23:59:17.358Z,100.00
